createdAt,value
2023-02-23T00:00:28.188Z,9.10
2023-02-23T00:03:29.651Z,10.70
2023-02-23T00:06:33.196Z,8.77
2023-02-23T00:09:37.918Z,10.05
2023-02-23T00:12:40.894Z,9.25
2023-02-23T00:15:42.342Z,9.25
2023-02-23T00:18:50.911Z,8.57
2023-02-23T00:21:53.791Z,7.13
2023-02-23T00:24:57.459Z,7.35
2023-02-23T00:27:59.216Z,10.18
2023-02-23T00:31:04.114Z,10.65
2023-02-23T00:34:06.235Z,8.43
2023-02-23T00:37:08.537Z,8.43
2023-02-23T00:40:14.742Z,9.68
2023-02-23T00:43:18.655Z,7.95
2023-02-23T00:46:24.954Z,7.30
2023-02-23T00:49:26.906Z,7.95
2023-02-23T00:52:29.203Z,8.15
2023-02-23T00:55:30.817Z,6.07
2023-02-23T00:58:32.326Z,4.90
2023-02-23T01:01:34.154Z,8.30
2023-02-23T01:04:35.672Z,7.50
2023-02-23T01:07:38.046Z,8.27
2023-02-23T01:10:41.767Z,10.23
2023-02-23T01:13:47.186Z,7.10
2023-02-23T01:16:48.941Z,5.68
2023-02-23T01:19:50.482Z,6.85
2023-02-23T01:22:52.093Z,6.32
2023-02-23T01:25:53.521Z,7.45
2023-02-23T01:28:57.932Z,8.10
2023-02-23T01:31:59.867Z,8.18
2023-02-23T01:35:04.384Z,6.15
2023-02-23T01:38:06.030Z,6.65
2023-02-23T01:41:09.124Z,7.43
2023-02-23T01:44:13.691Z,7.07
2023-02-23T01:47:16.998Z,8.52
2023-02-23T01:50:19.806Z,8.80
2023-02-23T01:53:22.273Z,8.35
2023-02-23T01:56:29.440Z,11.38
2023-02-23T01:59:39.232Z,6.40
2023-02-23T02:02:42.580Z,6.80
2023-02-23T02:05:45.546Z,6.53
2023-02-23T02:08:54.540Z,5.35
2023-02-23T02:11:56.011Z,6.90
2023-02-23T02:15:00.173Z,7.38
2023-02-23T02:18:23.308Z,6.28
2023-02-23T02:21:41.900Z,7.15
2023-02-23T02:25:01.713Z,5.80
2023-02-23T02:28:34.194Z,7.65
2023-02-23T02:31:38.535Z,6.60
2023-02-23T02:34:55.418Z,6.50
2023-02-23T02:38:16.502Z,6.60
2023-02-23T02:41:28.594Z,7.45
2023-02-23T02:44:49.617Z,7.40
2023-02-23T02:47:58.604Z,7.70
2023-02-23T02:51:10.289Z,6.63
2023-02-23T02:54:41.055Z,8.63
2023-02-23T02:57:46.731Z,12.02
2023-02-23T03:01:09.111Z,8.43
2023-02-23T03:04:41.993Z,5.80
2023-02-23T03:08:18.768Z,7.53
2023-02-23T03:11:39.108Z,6.50
2023-02-23T03:15:27.852Z,8.25
2023-02-23T03:19:17.066Z,9.27
2023-02-23T03:22:42.510Z,7.50
2023-02-23T03:26:24.697Z,6.43
2023-02-23T03:29:59.640Z,6.55
2023-02-23T03:33:29.855Z,6.90
2023-02-23T03:36:54.453Z,7.78
2023-02-23T03:40:22.803Z,8.27
2023-02-23T03:43:53.267Z,8.52
2023-02-23T03:47:15.826Z,9.40
2023-02-23T03:50:53.184Z,6.30
2023-02-23T03:54:22.787Z,10.77
2023-02-23T03:57:45.509Z,9.20
2023-02-23T04:01:09.793Z,7.95
2023-02-23T04:04:30.716Z,8.95
2023-02-23T04:07:53.562Z,11.45
2023-02-23T04:11:21.652Z,9.63
2023-02-23T04:14:31.187Z,10.30
2023-02-23T04:17:33.556Z,11.65
2023-02-23T04:20:35.319Z,9.48
2023-02-23T04:23:40.666Z,9.20
2023-02-23T04:26:42.377Z,11.50
2023-02-23T04:29:44.136Z,9.35
2023-02-23T04:32:46.028Z,12.20
2023-02-23T04:35:48.561Z,13.45
2023-02-23T04:38:50.068Z,14.25
2023-02-23T04:41:51.516Z,15.25
2023-02-23T04:44:53.318Z,15.10
2023-02-23T04:47:54.934Z,14.13
2023-02-23T04:50:56.439Z,15.25
2023-02-23T04:53:58.377Z,16.23
2023-02-23T04:56:59.807Z,14.27
2023-02-23T05:00:02.131Z,16.58
2023-02-23T05:03:03.924Z,10.88
2023-02-23T05:06:05.646Z,13.52
2023-02-23T05:09:07.093Z,16.30
2023-02-23T05:12:08.773Z,16.40
2023-02-23T05:15:11.092Z,13.23
2023-02-23T05:18:12.717Z,16.15
2023-02-23T05:21:14.290Z,16.27
2023-02-23T05:24:17.365Z,14.88
2023-02-23T05:27:19.104Z,13.70
2023-02-23T05:30:20.606Z,16.10
2023-02-23T05:33:22.117Z,12.93
2023-02-23T05:36:23.601Z,17.33
2023-02-23T05:39:25.085Z,16.25
2023-02-23T05:42:26.934Z,12.90
2023-02-23T05:45:28.448Z,14.48
2023-02-23T05:48:30.374Z,16.65
2023-02-23T05:51:34.282Z,19.70
2023-02-23T05:54:35.762Z,14.02
2023-02-23T05:57:37.781Z,15.10
2023-02-23T06:00:39.209Z,15.77
2023-02-23T06:03:40.669Z,14.82
2023-02-23T06:06:42.172Z,18.20
2023-02-23T06:09:44.645Z,14.27
2023-02-23T06:12:46.606Z,16.17
2023-02-23T06:15:49.492Z,15.98
2023-02-23T06:18:51.099Z,21.67
2023-02-23T06:21:55.452Z,15.18
2023-02-23T06:24:56.946Z,18.38
2023-02-23T06:27:58.400Z,18.67
2023-02-23T06:31:00.030Z,20.33
2023-02-23T06:34:01.514Z,19.77
2023-02-23T06:37:03.141Z,18.80
2023-02-23T06:40:05.914Z,15.85
2023-02-23T06:43:07.485Z,17.65
2023-02-23T06:46:09.046Z,18.05
2023-02-23T06:49:12.037Z,18.33
2023-02-23T06:52:14.239Z,19.85
2023-02-23T06:55:15.923Z,15.90
2023-02-23T06:58:17.748Z,17.90
2023-02-23T07:01:19.676Z,17.58
2023-02-23T07:04:21.453Z,18.42
2023-02-23T07:07:23.557Z,19.45
2023-02-23T07:10:25.060Z,21.40
2023-02-23T07:13:26.598Z,16.77
2023-02-23T07:16:29.127Z,15.88
2023-02-23T07:19:32.189Z,17.30
2023-02-23T07:22:34.222Z,19.45
2023-02-23T07:25:36.391Z,20.92
2023-02-23T07:28:38.230Z,19.45
2023-02-23T07:31:40.416Z,21.23
2023-02-23T07:34:42.007Z,15.95
2023-02-23T07:37:43.641Z,17.67
2023-02-23T07:40:45.276Z,21.88
2023-02-23T07:43:46.728Z,22.50
2023-02-23T07:46:48.463Z,20.20
2023-02-23T07:49:50.129Z,16.60
2023-02-23T07:52:52.290Z,17.50
2023-02-23T07:55:58.377Z,17.20
2023-02-23T07:58:59.866Z,21.73
2023-02-23T08:02:01.417Z,22.52
2023-02-23T08:05:03.817Z,21.88
2023-02-23T08:08:05.428Z,23.05
2023-02-23T08:11:06.930Z,23.88
2023-02-23T08:14:10.432Z,23.88
2023-02-23T08:17:12.590Z,25.40
2023-02-23T08:20:14.214Z,21.88
2023-02-23T08:23:18.068Z,19.02
2023-02-23T08:26:19.591Z,19.33
2023-02-23T08:29:21.337Z,20.23
2023-02-23T08:32:22.827Z,19.27
2023-02-23T08:35:25.488Z,21.25
2023-02-23T08:38:27.947Z,22.70
2023-02-23T08:41:29.556Z,17.20
2023-02-23T08:44:31.070Z,23.52
2023-02-23T08:47:34.255Z,21.50
2023-02-23T08:50:35.915Z,18.67
2023-02-23T08:53:37.446Z,19.83
2023-02-23T08:56:39.060Z,24.95
2023-02-23T08:59:41.239Z,23.50
2023-02-23T09:02:45.408Z,21.92
2023-02-23T09:05:47.115Z,18.73
2023-02-23T09:08:48.725Z,20.98
2023-02-23T09:11:50.209Z,19.35
2023-02-23T09:14:53.688Z,20.70
2023-02-23T09:17:55.167Z,16.00
2023-02-23T09:20:56.855Z,17.30
2023-02-23T09:23:58.535Z,17.83
2023-02-23T09:26:59.993Z,18.15
2023-02-23T09:30:01.798Z,18.30
2023-02-23T09:33:03.855Z,17.55
2023-02-23T09:36:12.832Z,16.40
2023-02-23T09:39:14.311Z,16.25
2023-02-23T09:42:38.312Z,18.90
2023-02-23T09:45:51.475Z,16.35
2023-02-23T09:48:56.675Z,17.33
2023-02-23T09:52:00.649Z,21.38
2023-02-23T09:55:02.420Z,22.23
2023-02-23T09:58:18.263Z,16.80
2023-02-23T10:01:41.379Z,18.10
2023-02-23T10:04:49.144Z,14.73
2023-02-23T10:08:02.494Z,13.05
2023-02-23T10:11:23.334Z,14.52
2023-02-23T10:14:36.603Z,11.75
2023-02-23T10:18:09.064Z,13.82
2023-02-23T10:21:36.055Z,12.13
2023-02-23T10:24:42.313Z,12.43
2023-02-23T10:27:49.238Z,16.98
2023-02-23T10:30:54.842Z,15.20
2023-02-23T10:34:00.043Z,15.18
2023-02-23T10:37:04.538Z,15.40
2023-02-23T10:40:07.024Z,14.13
2023-02-23T10:43:12.874Z,13.32
2023-02-23T10:46:22.381Z,12.57
2023-02-23T10:49:30.426Z,10.85
2023-02-23T10:52:46.806Z,11.75
2023-02-23T10:56:01.390Z,14.35
2023-02-23T10:59:02.909Z,17.25
2023-02-23T11:02:23.530Z,13.20
2023-02-23T11:05:34.099Z,16.83
2023-02-23T11:08:40.350Z,14.52
2023-02-23T11:11:59.581Z,12.05
2023-02-23T11:15:22.143Z,16.67
2023-02-23T11:18:26.114Z,13.38
2023-02-23T11:24:36.758Z,12.57
2023-02-23T11:27:38.204Z,18.10
2023-02-23T11:30:43.044Z,11.82
2023-02-23T11:33:47.129Z,14.13
2023-02-23T11:40:02.334Z,16.23
2023-02-23T11:43:16.511Z,16.33
2023-02-23T11:46:22.499Z,19.95
2023-02-23T11:49:31.891Z,13.95
2023-02-23T11:52:36.387Z,15.55
2023-02-23T11:55:38.433Z,16.52
2023-02-23T11:58:45.781Z,21.63
2023-02-23T12:01:52.502Z,13.40
2023-02-23T12:05:06.505Z,16.17
2023-02-23T12:08:18.443Z,13.05
2023-02-23T12:11:25.285Z,16.30
2023-02-23T12:14:37.815Z,16.70
2023-02-23T12:17:48.024Z,13.77
2023-02-23T12:20:54.223Z,13.57
2023-02-23T12:24:14.573Z,14.65
2023-02-23T12:27:29.649Z,13.07
2023-02-23T12:30:39.960Z,18.10
2023-02-23T12:33:48.329Z,17.42
2023-02-23T12:37:01.655Z,16.20
2023-02-23T12:40:16.101Z,23.60
2023-02-23T12:43:26.927Z,18.70
2023-02-23T12:46:40.516Z,15.00
2023-02-23T12:49:51.129Z,16.50
2023-02-23T12:53:12.368Z,16.73
2023-02-23T12:56:24.642Z,19.25
2023-02-23T12:59:46.444Z,14.13
2023-02-23T13:03:09.930Z,14.20
2023-02-23T13:06:24.957Z,15.68
2023-02-23T13:09:47.947Z,14.77
2023-02-23T13:13:02.079Z,17.40
2023-02-23T13:16:30.093Z,18.00
2023-02-23T13:19:46.835Z,16.55
2023-02-23T13:22:57.340Z,17.27
2023-02-23T13:26:46.351Z,20.75
2023-02-23T13:29:50.557Z,17.13
2023-02-23T13:32:52.657Z,16.23
2023-02-23T13:35:55.216Z,19.08
2023-02-23T13:39:33.978Z,17.75
2023-02-23T13:42:44.507Z,11.85
2023-02-23T13:45:55.242Z,15.45
2023-02-23T13:49:02.388Z,16.63
2023-02-23T13:52:23.538Z,17.25
2023-02-23T13:55:34.660Z,13.90
2023-02-23T13:58:48.653Z,21.67
2023-02-23T14:01:53.244Z,17.08
2023-02-23T14:05:02.499Z,15.20
2023-02-23T14:08:06.141Z,16.58
2023-02-23T14:11:07.740Z,13.93
2023-02-23T14:14:13.391Z,17.67
2023-02-23T14:17:14.788Z,14.00
2023-02-23T14:20:29.912Z,17.58
2023-02-23T14:23:42.215Z,18.17
2023-02-23T14:26:46.697Z,23.67
2023-02-23T14:30:15.116Z,15.23
2023-02-23T14:33:48.459Z,15.88
2023-02-23T14:36:53.107Z,13.18
2023-02-23T14:39:56.841Z,19.00
2023-02-23T14:43:00.868Z,15.65
2023-02-23T14:49:14.458Z,17.27
2023-02-23T14:52:29.151Z,18.90
2023-02-23T14:55:35.249Z,18.27
2023-02-23T14:58:36.865Z,18.33
2023-02-23T15:01:39.699Z,32.42
2023-02-23T15:04:41.981Z,21.40
2023-02-23T15:07:45.350Z,16.90
2023-02-23T15:10:50.649Z,23.48
2023-02-23T15:13:52.419Z,15.95
2023-02-23T15:16:56.358Z,18.90
2023-02-23T15:20:14.878Z,13.25
2023-02-23T15:23:19.365Z,29.15
2023-02-23T15:26:31.737Z,16.37
2023-02-23T15:29:33.670Z,12.23
2023-02-23T15:32:37.865Z,17.83
2023-02-23T15:35:47.379Z,14.77
2023-02-23T15:38:55.121Z,20.20
2023-02-23T15:41:56.717Z,18.38
2023-02-23T15:45:01.704Z,11.48
2023-02-23T15:48:06.410Z,16.23
2023-02-23T15:51:17.231Z,15.50
2023-02-23T15:54:32.419Z,15.27
2023-02-23T15:57:47.247Z,16.63
2023-02-23T16:01:06.162Z,14.32
2023-02-23T16:04:18.972Z,15.73
2023-02-23T16:07:21.970Z,14.52
2023-02-23T16:10:26.762Z,13.77
2023-02-23T16:13:28.631Z,12.20
2023-02-23T16:16:30.449Z,13.85
2023-02-23T16:19:32.462Z,15.48
2023-02-23T16:22:34.334Z,15.38
2023-02-23T16:25:35.803Z,14.00
2023-02-23T16:28:42.690Z,12.18
2023-02-23T16:31:50.062Z,17.40
2023-02-23T16:34:59.765Z,14.15
2023-02-23T16:38:03.360Z,21.83
2023-02-23T16:41:07.206Z,22.70
2023-02-23T16:44:18.037Z,24.80
2023-02-23T16:47:22.584Z,19.10
2023-02-23T16:50:25.161Z,18.52
2023-02-23T16:53:26.723Z,18.52
2023-02-23T16:56:30.702Z,18.05
2023-02-23T16:59:32.510Z,19.90
2023-02-23T17:02:35.042Z,21.08
2023-02-23T17:05:36.631Z,19.58
2023-02-23T17:08:43.420Z,18.35
2023-02-23T17:11:48.250Z,19.35
2023-02-23T17:14:50.036Z,17.60
2023-02-23T17:17:53.245Z,16.08
2023-02-23T17:20:56.656Z,30.20
2023-02-23T17:24:02.711Z,70.70
2023-02-23T17:27:04.352Z,61.67
2023-02-23T17:30:07.151Z,60.05
2023-02-23T17:33:09.719Z,46.25
2023-02-23T17:36:14.865Z,38.50
2023-02-23T17:39:16.802Z,38.65
2023-02-23T17:42:18.776Z,34.20
2023-02-23T17:45:20.229Z,50.22
2023-02-23T17:48:23.152Z,28.98
2023-02-23T17:51:24.684Z,24.35
2023-02-23T17:54:27.757Z,24.15
2023-02-23T17:57:30.726Z,25.30
2023-02-23T18:00:37.665Z,20.20
2023-02-23T18:03:39.604Z,21.23
2023-02-23T18:06:41.508Z,22.23
2023-02-23T18:09:43.390Z,22.92
2023-02-23T18:12:45.014Z,17.08
2023-02-23T18:15:51.438Z,21.50
2023-02-23T18:18:53.676Z,21.27
2023-02-23T18:21:56.107Z,19.17
2023-02-23T18:24:58.229Z,20.33
2023-02-23T18:28:00.127Z,18.17
2023-02-23T18:31:02.185Z,28.48
2023-02-23T18:34:03.701Z,27.90
2023-02-23T18:37:05.663Z,25.00
2023-02-23T18:40:07.636Z,26.90
2023-02-23T18:43:09.568Z,21.73
2023-02-23T18:46:12.593Z,25.33
2023-02-23T18:49:16.822Z,18.92
2023-02-23T18:52:18.313Z,25.13
2023-02-23T18:55:22.093Z,23.00
2023-02-23T18:58:24.208Z,18.90
2023-02-23T19:01:28.772Z,20.42
2023-02-23T19:04:30.256Z,21.58
2023-02-23T19:07:32.399Z,17.13
2023-02-23T19:10:33.956Z,19.90
2023-02-23T19:13:38.057Z,17.90
2023-02-23T19:19:42.512Z,22.70
2023-02-23T19:22:44.160Z,16.40
2023-02-23T19:25:49.779Z,18.67
2023-02-23T19:28:51.257Z,15.82
2023-02-23T19:31:52.842Z,19.55
2023-02-23T19:34:54.416Z,19.60
2023-02-23T19:37:57.491Z,18.10
2023-02-23T19:40:59.071Z,18.17
2023-02-23T19:44:00.809Z,17.63
2023-02-23T19:47:02.469Z,16.98
2023-02-23T19:50:04.216Z,14.20
2023-02-23T19:53:05.718Z,16.08
2023-02-23T19:56:10.851Z,20.17
2023-02-23T19:59:12.655Z,15.35
2023-02-23T20:02:14.202Z,14.63
2023-02-23T20:05:16.790Z,18.13
2023-02-23T20:08:19.317Z,15.15
2023-02-23T20:11:22.353Z,23.75
2023-02-23T20:14:24.957Z,25.90
2023-02-23T20:17:26.508Z,21.05
2023-02-23T20:20:29.053Z,23.75
2023-02-23T20:23:30.548Z,15.93
2023-02-23T20:26:35.440Z,19.60
2023-02-23T20:29:37.078Z,16.55
2023-02-23T20:32:38.873Z,18.83
2023-02-23T20:35:41.337Z,20.25
2023-02-23T20:38:43.047Z,17.00
2023-02-23T20:41:45.560Z,21.90
2023-02-23T20:44:47.034Z,16.10
2023-02-23T20:47:53.149Z,19.88
2023-02-23T20:50:55.327Z,22.67
2023-02-23T20:53:56.955Z,18.25
2023-02-23T20:57:07.503Z,18.80
2023-02-23T21:00:13.533Z,19.02
2023-02-23T21:03:14.972Z,20.60
2023-02-23T21:06:16.809Z,19.20
2023-02-23T21:09:18.340Z,15.68
2023-02-23T21:12:20.466Z,20.55
2023-02-23T21:15:22.011Z,18.67
2023-02-23T21:18:23.657Z,15.68
2023-02-23T21:21:26.264Z,17.98
2023-02-23T21:24:28.848Z,13.40
2023-02-23T21:27:30.388Z,14.88
2023-02-23T21:30:31.922Z,18.25
2023-02-23T21:33:33.362Z,16.27
2023-02-23T21:36:35.573Z,21.13
2023-02-23T21:39:37.363Z,16.67
2023-02-23T21:42:40.742Z,18.50
2023-02-23T21:45:47.202Z,14.30
2023-02-23T21:48:49.226Z,19.25
2023-02-23T21:51:52.469Z,19.52
2023-02-23T21:54:55.245Z,17.75
2023-02-23T21:57:58.164Z,19.85
2023-02-23T22:00:59.663Z,19.60
2023-02-23T22:04:01.240Z,17.98
2023-02-23T22:07:02.768Z,19.73
2023-02-23T22:10:05.261Z,17.08
2023-02-23T22:13:06.828Z,17.00
2023-02-23T22:16:08.699Z,21.02
2023-02-23T22:19:12.017Z,18.02
2023-02-23T22:22:13.498Z,12.13
2023-02-23T22:25:16.997Z,20.27
2023-02-23T22:28:18.476Z,14.38
2023-02-23T22:31:20.508Z,20.38
2023-02-23T22:34:22.634Z,20.17
2023-02-23T22:37:32.006Z,16.50
2023-02-23T22:40:34.934Z,17.38
2023-02-23T22:43:37.771Z,14.57
2023-02-23T22:46:41.242Z,16.95
2023-02-23T22:49:42.671Z,15.80
2023-02-23T22:52:44.223Z,17.02
2023-02-23T22:55:47.102Z,21.40
2023-02-23T22:58:52.086Z,20.05
2023-02-23T23:01:56.309Z,23.35
2023-02-23T23:08:00.127Z,18.17
2023-02-23T23:11:09.864Z,19.00
2023-02-23T23:14:12.221Z,20.33
2023-02-23T23:17:15.062Z,19.58
2023-02-23T23:20:25.588Z,20.30
2023-02-23T23:23:27.201Z,15.07
2023-02-23T23:26:29.558Z,23.05
2023-02-23T23:29:31.104Z,17.95
2023-02-23T23:32:33.474Z,16.63
2023-02-23T23:35:34.974Z,15.90
2023-02-23T23:38:38.459Z,20.55
2023-02-23T23:41:40.344Z,24.30
2023-02-23T23:44:42.052Z,15.13
2023-02-23T23:47:45.019Z,19.38
2023-02-23T23:50:47.303Z,16.83
2023-02-23T23:53:51.662Z,18.80
2023-02-23T23:56:54.097Z,23.90
2023-02-23T23:59:56.279Z,18.60
